createdAt,value
2019-05-02T00:01:44.401Z,8.68
2019-05-02T00:04:20.039Z,7.60
2019-05-02T00:07:05.436Z,11.55
2019-05-02T00:09:37.788Z,10.18
2019-05-02T00:12:15.261Z,8.13
2019-05-02T00:14:45.912Z,9.88
2019-05-02T00:17:20.324Z,9.10
2019-05-02T00:19:52.011Z,9.78
2019-05-02T00:22:23.429Z,9.78
2019-05-02T00:24:54.393Z,8.90
2019-05-02T00:27:25.909Z,8.58
2019-05-02T00:29:58.858Z,10.75
2019-05-02T00:32:29.268Z,8.00
2019-05-02T00:35:02.035Z,9.18
2019-05-02T00:37:32.857Z,7.80
2019-05-02T00:40:03.914Z,8.40
2019-05-02T00:42:34.823Z,9.28
2019-05-02T00:45:05.386Z,9.95
2019-05-02T00:47:53.120Z,7.85
2019-05-02T00:50:27.132Z,10.80
2019-05-02T00:52:58.946Z,10.20
2019-05-02T00:55:33.911Z,9.05
2019-05-02T00:58:05.235Z,8.70
2019-05-02T01:00:54.830Z,9.33
2019-05-02T01:03:26.973Z,9.53
2019-05-02T01:06:01.643Z,7.67
2019-05-02T01:08:35.737Z,8.48
2019-05-02T01:11:05.532Z,11.68
2019-05-02T01:13:35.691Z,11.53
2019-05-02T01:16:07.698Z,11.45
2019-05-02T01:18:41.309Z,8.60
2019-05-02T01:21:23.227Z,10.10
2019-05-02T01:23:58.961Z,9.95
2019-05-02T01:26:37.436Z,10.18
2019-05-02T01:29:15.323Z,11.73
2019-05-02T01:32:01.381Z,9.70
2019-05-02T01:35:08.372Z,12.47
2019-05-02T01:38:16.809Z,12.68
2019-05-02T01:40:53.192Z,12.90
2019-05-02T01:43:31.759Z,11.53
2019-05-02T01:46:01.873Z,13.03
2019-05-02T01:48:34.144Z,10.65
2019-05-02T01:51:09.804Z,13.58
2019-05-02T01:53:36.350Z,10.78
2019-05-02T01:56:06.849Z,13.93
2019-05-02T01:58:37.583Z,13.48
2019-05-02T02:01:08.624Z,11.57
2019-05-02T02:03:40.419Z,9.53
2019-05-02T02:06:12.006Z,8.25
2019-05-02T02:08:42.508Z,12.68
2019-05-02T02:11:15.251Z,12.20
2019-05-02T02:13:45.655Z,11.00
2019-05-02T02:16:17.727Z,9.35
2019-05-02T02:19:07.104Z,10.60
2019-05-02T02:21:57.514Z,9.53
2019-05-02T02:24:32.507Z,12.65
2019-05-02T02:27:03.458Z,9.25
2019-05-02T02:29:39.067Z,9.28
2019-05-02T02:32:09.074Z,8.68
2019-05-02T02:34:39.436Z,8.33
2019-05-02T02:37:13.235Z,10.48
2019-05-02T02:39:48.468Z,15.28
2019-05-02T02:42:15.443Z,8.20
2019-05-02T02:44:56.197Z,8.98
2019-05-02T02:47:26.692Z,8.65
2019-05-02T02:50:02.713Z,12.53
2019-05-02T02:52:28.741Z,10.50
2019-05-02T02:54:59.046Z,9.93
2019-05-02T02:57:31.764Z,10.90
2019-05-02T03:00:07.533Z,11.18
2019-05-02T03:02:34.824Z,10.63
2019-05-02T03:05:05.261Z,13.65
2019-05-02T03:07:35.464Z,10.05
2019-05-02T03:10:09.120Z,9.38
2019-05-02T03:12:58.423Z,8.45
2019-05-02T03:15:32.876Z,11.70
2019-05-02T03:18:02.987Z,9.45
2019-05-02T03:20:39.914Z,9.45
2019-05-02T03:23:05.818Z,10.48
2019-05-02T03:25:50.091Z,11.57
2019-05-02T03:28:17.823Z,9.50
2019-05-02T03:30:42.808Z,11.15
2019-05-02T03:33:13.035Z,7.03
2019-05-02T03:35:49.169Z,8.20
2019-05-02T03:38:31.075Z,9.53
2019-05-02T03:40:54.047Z,9.58
2019-05-02T03:43:27.692Z,8.85
2019-05-02T03:45:57.460Z,8.88
2019-05-02T03:48:29.020Z,10.78
2019-05-02T03:50:59.098Z,9.48
2019-05-02T03:53:33.851Z,11.48
2019-05-02T03:56:11.571Z,8.60
2019-05-02T03:58:39.933Z,9.20
2019-05-02T04:01:10.988Z,8.75
2019-05-02T04:03:43.848Z,9.10
2019-05-02T04:06:20.833Z,12.68
2019-05-02T04:08:59.234Z,11.90
2019-05-02T04:11:37.818Z,8.73
2019-05-02T04:14:00.100Z,11.10
2019-05-02T04:16:31.061Z,11.63
2019-05-02T04:19:05.430Z,9.83
2019-05-02T04:21:37.695Z,10.25
2019-05-02T04:24:13.409Z,14.05
2019-05-02T04:26:53.644Z,9.40
2019-05-02T04:29:16.865Z,9.13
2019-05-02T04:31:48.047Z,8.15
2019-05-02T04:34:18.319Z,9.60
2019-05-02T04:36:59.838Z,9.33
2019-05-02T04:39:21.990Z,10.00
2019-05-02T04:41:52.271Z,9.10
2019-05-02T04:44:32.259Z,10.88
2019-05-02T04:47:10.971Z,11.88
2019-05-02T04:49:36.262Z,9.45
2019-05-02T04:52:12.312Z,11.97
2019-05-02T04:54:41.044Z,12.50
2019-05-02T04:57:12.580Z,12.33
2019-05-02T04:59:50.775Z,9.95
2019-05-02T05:02:21.321Z,10.85
2019-05-02T05:04:50.683Z,9.28
2019-05-02T05:07:23.000Z,9.98
2019-05-02T05:09:57.901Z,10.72
2019-05-02T05:12:40.006Z,11.85
2019-05-02T05:15:08.099Z,13.98
2019-05-02T05:17:39.787Z,12.18
2019-05-02T05:20:15.667Z,11.80
2019-05-02T05:22:44.611Z,15.23
2019-05-02T05:25:27.892Z,11.05
2019-05-02T05:28:05.670Z,11.45
2019-05-02T05:30:37.688Z,15.58
2019-05-02T05:33:28.985Z,13.03
2019-05-02T05:36:00.813Z,11.20
2019-05-02T05:38:40.308Z,12.73
2019-05-02T05:41:13.931Z,15.80
2019-05-02T05:43:50.051Z,12.05
2019-05-02T05:46:28.060Z,13.03
2019-05-02T05:49:38.955Z,13.65
2019-05-02T05:52:32.948Z,16.45
2019-05-02T05:55:38.307Z,18.77
2019-05-02T05:59:07.599Z,20.80
2019-05-02T06:01:51.527Z,12.07
2019-05-02T06:04:23.552Z,13.60
2019-05-02T06:06:54.055Z,12.13
2019-05-02T06:09:31.112Z,13.75
2019-05-02T06:12:03.708Z,14.23
2019-05-02T06:14:46.385Z,11.95
2019-05-02T06:17:28.508Z,11.00
2019-05-02T06:20:01.195Z,10.93
2019-05-02T06:22:34.532Z,15.93
2019-05-02T06:25:10.096Z,10.53
2019-05-02T06:27:42.840Z,11.73
2019-05-02T06:30:14.443Z,14.43
2019-05-02T06:32:49.930Z,10.88
2019-05-02T06:35:21.082Z,10.15
2019-05-02T06:37:53.644Z,10.43
2019-05-02T06:40:25.066Z,13.25
2019-05-02T06:42:55.888Z,10.43
2019-05-02T06:45:32.210Z,11.68
2019-05-02T06:48:01.285Z,9.55
2019-05-02T06:50:33.440Z,13.75
2019-05-02T06:53:04.285Z,11.38
2019-05-02T06:55:38.550Z,11.70
2019-05-02T06:58:09.656Z,13.18
2019-05-02T07:00:56.528Z,9.35
2019-05-02T07:03:15.017Z,10.15
2019-05-02T07:05:48.861Z,11.75
2019-05-02T07:08:40.385Z,11.65
2019-05-02T07:11:21.007Z,12.20
2019-05-02T07:14:12.553Z,10.35
2019-05-02T07:16:56.943Z,12.73
2019-05-02T07:19:58.892Z,9.58
2019-05-02T07:22:33.220Z,9.85
2019-05-02T07:28:09.530Z,10.35
2019-05-02T07:31:06.651Z,11.30
2019-05-02T07:33:43.038Z,10.13
2019-05-02T07:36:51.803Z,10.58
2019-05-02T07:39:42.714Z,9.80
2019-05-02T07:42:17.278Z,10.55
2019-05-02T07:44:56.589Z,9.63
2019-05-02T07:47:34.607Z,8.83
2019-05-02T07:50:28.636Z,24.75
2019-05-02T07:53:09.661Z,11.97
2019-05-02T07:55:43.204Z,8.85
2019-05-02T07:58:25.686Z,9.75
2019-05-02T08:00:58.624Z,9.98
2019-05-02T08:08:14.998Z,10.08
2019-05-02T08:11:09.848Z,8.65
2019-05-02T08:14:29.275Z,9.25
2019-05-02T08:28:19.147Z,8.70
2019-05-02T08:54:43.697Z,7.42
2019-05-02T09:12:04.851Z,8.33
2019-05-02T09:23:13.956Z,9.45
2019-05-02T09:26:53.091Z,8.48
2019-05-02T09:34:44.761Z,8.70
2019-05-02T09:49:41.711Z,8.63
2019-05-02T09:56:26.807Z,6.87
2019-05-02T11:08:09.253Z,6.30
2019-05-02T11:10:42.286Z,7.72
2019-05-02T11:13:21.775Z,5.70
2019-05-02T11:16:12.379Z,6.40
2019-05-02T11:19:13.344Z,6.97
2019-05-02T11:21:55.384Z,5.90
2019-05-02T11:24:19.808Z,6.00
2019-05-02T11:26:56.217Z,4.83
2019-05-02T11:29:29.686Z,6.37
2019-05-02T11:32:07.497Z,6.43
2019-05-02T11:34:37.596Z,7.20
2019-05-02T11:37:09.339Z,6.33
2019-05-02T11:39:48.550Z,5.17
2019-05-02T11:42:12.507Z,5.67
2019-05-02T11:44:43.885Z,4.77
2019-05-02T11:47:17.221Z,5.93
2019-05-02T11:49:53.910Z,6.80
2019-05-02T11:52:22.609Z,5.83
2019-05-02T11:54:53.007Z,5.80
2019-05-02T11:57:28.487Z,5.00
2019-05-02T11:59:54.967Z,3.80
2019-05-02T12:02:58.298Z,6.90
2019-05-02T12:05:35.799Z,4.83
2019-05-02T12:08:07.945Z,7.07
2019-05-02T12:10:38.656Z,4.20
2019-05-02T12:13:12.014Z,5.23
2019-05-02T12:15:47.559Z,5.40
2019-05-02T12:18:26.676Z,5.53
2019-05-02T12:21:04.461Z,9.80
2019-05-02T12:23:42.220Z,4.87
2019-05-02T12:26:19.566Z,4.53
2019-05-02T12:28:49.988Z,5.00
2019-05-02T12:31:26.780Z,9.37
2019-05-02T12:33:58.492Z,4.77
2019-05-02T12:36:29.549Z,5.10
2019-05-02T12:39:02.452Z,4.37
2019-05-02T12:41:33.912Z,4.17
2019-05-02T12:44:07.033Z,6.50
2019-05-02T12:47:46.352Z,4.37
2019-05-02T12:50:24.217Z,4.67
2019-05-02T12:52:55.741Z,14.27
2019-05-02T12:55:26.568Z,5.73
2019-05-02T12:57:59.016Z,5.87
2019-05-02T13:00:31.943Z,5.50
2019-05-02T13:03:07.353Z,4.67
2019-05-02T13:05:37.924Z,4.57
2019-05-02T13:08:08.198Z,5.03
2019-05-02T13:10:49.131Z,6.40
2019-05-02T13:13:19.407Z,6.67
2019-05-02T13:15:51.713Z,4.80
2019-05-02T13:18:27.297Z,4.77
2019-05-02T13:20:58.957Z,6.13
2019-05-02T13:23:47.097Z,4.73
2019-05-02T13:26:24.947Z,5.87
2019-05-02T13:28:51.767Z,7.70
2019-05-02T13:31:36.909Z,5.10
2019-05-02T13:34:16.661Z,6.13
2019-05-02T13:36:57.759Z,5.67
2019-05-02T13:40:22.558Z,8.07
2019-05-02T13:47:29.051Z,5.30
2019-05-02T13:52:57.872Z,8.20
2019-05-02T13:59:52.382Z,5.83
2019-05-02T14:02:59.917Z,8.23
2019-05-02T14:09:25.547Z,4.80
2019-05-02T14:12:09.230Z,4.93
2019-05-02T14:19:04.772Z,4.77
2019-05-02T14:21:52.924Z,6.00
2019-05-02T14:32:26.631Z,6.07
2019-05-02T14:35:54.406Z,10.67
2019-05-02T14:38:44.960Z,4.90
2019-05-02T15:08:07.233Z,8.83
2019-05-02T15:11:31.193Z,14.83
2019-05-02T15:14:23.660Z,7.30
2019-05-02T15:17:37.750Z,15.83
2019-05-02T15:20:07.823Z,7.92
2019-05-02T15:22:39.814Z,7.90
2019-05-02T15:25:13.540Z,12.55
2019-05-02T15:31:26.232Z,8.05
2019-05-02T15:35:26.571Z,13.83
2019-05-02T15:37:49.385Z,10.00
2019-05-02T15:40:47.325Z,7.45
2019-05-02T15:42:56.804Z,15.55
2019-05-02T15:45:32.083Z,10.13
2019-05-02T15:48:02.666Z,5.70
2019-05-02T15:50:34.541Z,10.00
2019-05-02T15:53:27.968Z,8.20
2019-05-02T15:55:59.601Z,6.10
2019-05-02T15:58:46.250Z,12.55
2019-05-02T16:01:27.328Z,4.47
2019-05-02T16:03:58.654Z,4.85
2019-05-02T16:06:33.677Z,3.85
2019-05-02T16:09:05.569Z,7.10
2019-05-02T16:11:47.923Z,7.30
2019-05-02T16:52:28.093Z,4.85
2019-05-02T16:55:15.132Z,5.30
2019-05-02T16:57:56.840Z,5.53
2019-05-02T17:00:36.805Z,5.45
2019-05-02T17:03:17.469Z,5.80
2019-05-02T17:05:49.570Z,4.67
2019-05-02T17:08:44.566Z,6.55
2019-05-02T17:11:20.563Z,7.87
2019-05-02T17:13:52.643Z,4.85
2019-05-02T17:16:23.898Z,5.30
2019-05-02T17:19:01.681Z,4.35
2019-05-02T17:21:52.370Z,5.28
2019-05-02T17:24:07.152Z,8.35
2019-05-02T17:26:37.394Z,5.72
2019-05-02T17:29:07.680Z,5.42
2019-05-02T17:31:37.908Z,6.58
2019-05-02T17:34:08.064Z,5.62
2019-05-02T17:36:43.017Z,5.47
2019-05-02T17:39:22.151Z,7.00
2019-05-02T17:41:54.950Z,6.50
2019-05-02T17:44:41.358Z,3.98
2019-05-02T17:47:40.939Z,5.58
2019-05-02T17:50:38.748Z,8.18
2019-05-02T17:53:55.197Z,5.50
2019-05-02T17:56:42.380Z,6.87
2019-05-02T17:59:46.452Z,5.50
2019-05-02T18:02:38.456Z,5.67
2019-05-02T18:05:52.762Z,6.90
2019-05-02T18:08:22.001Z,6.70
2019-05-02T18:10:58.573Z,5.83
2019-05-02T18:13:33.302Z,4.92
2019-05-02T18:15:59.614Z,5.45
2019-05-02T18:18:31.793Z,5.67
2019-05-02T18:21:02.967Z,5.12
2019-05-02T18:23:33.454Z,6.05
2019-05-02T18:26:06.193Z,5.53
2019-05-02T18:28:48.999Z,7.40
2019-05-02T18:31:13.372Z,7.92
2019-05-02T18:33:44.402Z,5.25
2019-05-02T18:36:17.387Z,7.83
2019-05-02T18:38:47.072Z,5.58
2019-05-02T18:41:22.329Z,6.55
2019-05-02T18:43:52.296Z,5.72
2019-05-02T18:46:23.444Z,5.80
2019-05-02T18:48:54.303Z,7.28
2019-05-02T18:51:24.421Z,7.22
2019-05-02T18:53:58.015Z,6.53
2019-05-02T18:56:27.513Z,6.33
2019-05-02T18:58:57.854Z,7.92
2019-05-02T19:01:27.981Z,7.15
2019-05-02T19:03:58.116Z,6.22
2019-05-02T19:06:33.366Z,6.22
2019-05-02T19:09:04.463Z,7.62
2019-05-02T19:11:35.371Z,5.90
2019-05-02T19:14:05.919Z,7.10
2019-05-02T19:16:38.565Z,6.80
2019-05-02T19:19:08.748Z,6.97
2019-05-02T19:21:39.537Z,5.95
2019-05-02T19:24:13.259Z,6.10
2019-05-02T19:26:49.478Z,6.15
2019-05-02T19:29:25.596Z,6.33
2019-05-02T19:31:56.842Z,5.80
2019-05-02T19:34:27.999Z,7.08
2019-05-02T19:37:02.850Z,6.67
2019-05-02T19:39:32.226Z,6.67
2019-05-02T19:42:04.417Z,7.45
2019-05-02T19:44:34.630Z,6.30
2019-05-02T19:47:08.311Z,8.55
2019-05-02T19:49:36.727Z,7.12
2019-05-02T19:52:06.924Z,6.05
2019-05-02T19:54:41.058Z,7.75
2019-05-02T19:57:11.834Z,7.55
2019-05-02T19:59:43.154Z,8.18
2019-05-02T20:02:15.150Z,7.15
2019-05-02T20:04:45.289Z,6.67
2019-05-02T20:07:15.563Z,7.45
2019-05-02T20:09:47.246Z,7.58
2019-05-02T20:12:17.556Z,7.75
2019-05-02T20:14:47.773Z,10.15
2019-05-02T20:17:20.699Z,11.68
2019-05-02T20:19:57.790Z,14.07
2019-05-02T20:22:26.996Z,13.50
2019-05-02T20:25:01.167Z,11.60
2019-05-02T20:27:33.248Z,11.45
2019-05-02T20:30:03.624Z,13.83
2019-05-02T20:32:35.158Z,12.15
2019-05-02T20:35:05.588Z,14.40
2019-05-02T20:37:35.824Z,15.25
2019-05-02T20:40:06.654Z,14.63
2019-05-02T20:42:36.852Z,15.53
2019-05-02T20:45:07.493Z,18.27
2019-05-02T20:47:37.696Z,15.70
2019-05-02T20:50:08.877Z,18.25
2019-05-02T20:52:39.551Z,17.77
2019-05-02T20:55:09.747Z,17.25
2019-05-02T20:57:39.919Z,21.80
2019-05-02T21:00:23.522Z,16.55
2019-05-02T21:03:02.490Z,17.85
2019-05-02T21:05:44.037Z,18.25
2019-05-02T21:08:48.127Z,15.40
2019-05-02T21:11:19.356Z,17.77
2019-05-02T21:13:49.599Z,16.35
2019-05-02T21:16:21.811Z,19.55
2019-05-02T21:18:57.202Z,18.75
2019-05-02T21:21:36.122Z,18.12
2019-05-02T21:24:02.796Z,19.00
2019-05-02T21:26:34.853Z,21.97
2019-05-02T21:29:08.001Z,25.25
2019-05-02T21:31:40.180Z,19.75
2019-05-02T21:34:12.014Z,18.00
2019-05-02T21:36:42.647Z,18.00
2019-05-02T21:39:13.580Z,21.70
2019-05-02T21:41:48.354Z,18.12
2019-05-02T21:44:18.785Z,21.70
2019-05-02T21:46:51.865Z,21.07
2019-05-02T21:49:42.851Z,21.37
2019-05-02T21:52:22.690Z,23.32
2019-05-02T21:55:01.766Z,26.12
2019-05-02T21:57:36.288Z,27.87
2019-05-02T22:00:15.916Z,29.27
2019-05-02T22:02:46.343Z,20.90
2019-05-02T22:05:16.543Z,22.90
2019-05-02T22:07:48.532Z,24.70
2019-05-02T22:10:18.647Z,25.77
2019-05-02T22:12:51.691Z,29.42
2019-05-02T22:15:22.738Z,25.48
2019-05-02T22:17:55.776Z,23.10
2019-05-02T22:20:25.967Z,26.20
2019-05-02T22:23:02.398Z,26.73
2019-05-02T22:25:34.515Z,32.85
2019-05-02T22:28:07.478Z,24.47
2019-05-02T22:30:37.697Z,26.52
2019-05-02T22:33:07.892Z,25.00
2019-05-02T22:35:42.976Z,30.08
2019-05-02T22:38:19.611Z,28.10
2019-05-02T22:40:53.670Z,29.48
2019-05-02T22:43:23.810Z,27.95
2019-05-02T22:45:54.027Z,26.60
2019-05-02T22:48:24.156Z,35.73
2019-05-02T22:50:54.323Z,37.85
2019-05-02T22:53:24.742Z,29.45
2019-05-02T22:55:56.639Z,29.25
2019-05-02T22:58:27.952Z,29.77
2019-05-02T23:00:58.087Z,30.00
2019-05-02T23:03:28.427Z,33.33
2019-05-02T23:05:58.592Z,26.57
2019-05-02T23:08:28.718Z,31.35
2019-05-02T23:11:03.397Z,26.93
2019-05-02T23:13:39.300Z,29.70
2019-05-02T23:16:11.268Z,28.85
2019-05-02T23:18:42.600Z,26.57
2019-05-02T23:21:15.347Z,30.70
2019-05-02T23:23:45.728Z,28.55
2019-05-02T23:26:35.331Z,30.00
2019-05-02T23:29:07.172Z,25.92
2019-05-02T23:31:38.357Z,26.62
2019-05-02T23:34:08.497Z,25.50
2019-05-02T23:36:39.076Z,27.27
2019-05-02T23:39:12.073Z,29.70
2019-05-02T23:41:43.801Z,25.52
2019-05-02T23:44:14.073Z,23.83
2019-05-02T23:46:45.054Z,27.67
2019-05-02T23:49:16.873Z,27.35
2019-05-02T23:51:47.502Z,31.25
2019-05-02T23:54:17.623Z,28.75
2019-05-02T23:56:49.842Z,28.45
2019-05-02T23:59:22.337Z,33.28
